Time;durP1;ratioP1;P1;durP2;ratioP2;P2;SDS_P1;SDS_P2;PMS_P1;PMS_P2;Temp;Humidity;BMP_temperature;BMP_pressure;BME280_temperature;BME280_humidity;BME280_pressure;Samples;Min_cycle;Max_cycle;Signal;HPM_P1;HPM_P2
2023/05/07 00:00:25;;;;;;;7.30;5.10;;;16.70;99.90;;;;;;5071024;28;20043;-74
2023/05/07 00:02:51;;;;;;;;;;;16.60;99.90;;;;;;5070557;28;20037;-73
2023/05/07 00:05:17;;;;;;;10.85;5.03;;;16.50;99.90;;;;;;5069767;28;19928;-73
2023/05/07 00:07:43;;;;;;;7.43;4.82;;;16.50;99.90;;;;;;5069261;28;20025;-74
2023/05/07 00:10:12;;;;;;;6.85;4.75;;;16.50;99.90;;;;;;5070185;28;20100;-74
2023/05/07 00:12:38;;;;;;;7.28;4.40;;;16.50;99.90;;;;;;5069938;28;20024;-74
2023/05/07 00:15:06;;;;;;;7.38;4.85;;;16.60;99.90;;;;;;5070344;28;20346;-72
2023/05/07 00:17:33;;;;;;;7.47;4.80;;;16.60;99.90;;;;;;5070100;28;20515;-74
2023/05/07 00:19:59;;;;;;;8.35;4.65;;;16.60;99.90;;;;;;5069621;28;20501;-73
2023/05/07 00:22:26;;;;;;;8.23;4.40;;;16.60;99.90;;;;;;5069934;28;20051;-73
2023/05/07 00:24:52;;;;;;;8.10;4.45;;;16.60;99.90;;;;;;5069880;28;20031;-72
2023/05/07 00:27:18;;;;;;;11.07;5.10;;;16.50;99.90;;;;;;5069590;28;20025;-74
2023/05/07 00:29:44;;;;;;;8.40;5.00;;;16.50;99.90;;;;;;5068377;28;20020;-74
2023/05/07 00:32:10;;;;;;;6.60;4.60;;;16.40;99.90;;;;;;5069898;28;20031;-73
2023/05/07 00:34:36;;;;;;;8.30;5.25;;;16.40;99.90;;;;;;5069637;28;20750;-74
2023/05/07 00:37:02;;;;;;;27.03;16.37;;;16.20;99.90;;;;;;5069971;28;20165;-73
2023/05/07 00:39:28;;;;;;;39.17;23.63;;;16.20;99.90;;;;;;5069445;28;20263;-72
2023/05/07 00:41:54;;;;;;;30.17;16.13;;;16.00;99.90;;;;;;5069971;28;20039;-72
2023/05/07 00:44:20;;;;;;;42.53;26.08;;;16.10;99.90;;;;;;5069810;28;20020;-74
2023/05/07 00:46:49;;;;;;;40.05;24.92;;;16.10;99.90;;;;;;5069550;28;20036;-72
2023/05/07 00:49:16;;;;;;;46.08;28.65;;;16.00;99.90;;;;;;5068110;28;20021;-73
2023/05/07 00:51:43;;;;;;;43.85;29.52;;;15.80;99.90;;;;;;5069644;28;20169;-73
2023/05/07 00:54:09;;;;;;;24.73;16.17;;;15.80;99.90;;;;;;5069399;28;20017;-72
2023/05/07 00:56:36;;;;;;;29.52;19.42;;;15.80;99.90;;;;;;5069605;28;20032;-72
2023/05/07 00:59:03;;;;;;;20.65;13.13;;;15.90;99.90;;;;;;5069715;28;20025;-73
2023/05/07 01:01:29;;;;;;;25.58;15.20;;;16.00;99.90;;;;;;5069566;28;20098;-73
2023/05/07 01:03:56;;;;;;;61.90;27.65;;;16.10;99.90;;;;;;5069698;28;20112;-73
2023/05/07 01:06:24;;;;;;;106.50;49.63;;;16.10;99.90;;;;;;5069688;28;20036;-72
2023/05/07 01:08:52;;;;;;;27.90;12.90;;;16.00;99.90;;;;;;5069321;28;20108;-73
2023/05/07 01:11:22;;;;;;;22.60;12.57;;;16.10;99.90;;;;;;5069451;28;20035;-73
2023/05/07 01:13:50;;;;;;;49.55;27.75;;;16.00;99.90;;;;;;5067802;28;20027;-71
2023/05/07 01:16:16;;;;;;;40.92;21.33;;;16.00;99.90;;;;;;5069474;28;20332;-72
2023/05/07 01:18:42;;;;;;;136.98;68.03;;;15.80;99.90;;;;;;5070783;28;20055;-73
2023/05/07 01:21:11;;;;;;;105.43;57.00;;;15.70;99.90;;;;;;5072929;28;20047;-73
2023/05/07 01:23:39;;;;;;;61.28;30.55;;;15.80;99.90;;;;;;5071376;28;20149;-73
2023/05/07 01:26:05;;;;;;;91.53;47.10;;;15.80;99.90;;;;;;5071357;28;20245;-72
2023/05/07 01:28:31;;;;;;;45.10;23.00;;;15.90;99.90;;;;;;5073180;28;20052;-73
2023/05/07 01:31:03;;;;;;;39.00;21.23;;;16.00;99.90;;;;;;5073178;28;20040;-74
2023/05/07 01:33:33;;;;;;;82.82;38.63;;;16.00;99.90;;;;;;5072988;28;20483;-72
2023/05/07 01:36:02;;;;;;;89.65;43.05;;;16.10;99.90;;;;;;5073296;28;20138;-74
2023/05/07 01:38:28;;;;;;;115.07;56.42;;;16.10;99.90;;;;;;5072529;28;20066;-73
2023/05/07 01:40:55;;;;;;;35.80;19.45;;;16.20;99.90;;;;;;5072738;28;20063;-72
2023/05/07 01:43:21;;;;;;;;;;;16.20;99.90;;;;;;5071481;28;20380;-72
2023/05/07 01:45:49;;;;;;;54.58;25.63;;;16.10;99.90;;;;;;5073052;28;19970;-73
2023/05/07 01:48:15;;;;;;;29.52;14.30;;;16.10;99.90;;;;;;5072606;28;20078;-72
2023/05/07 01:50:43;;;;;;;20.45;11.35;;;16.00;99.90;;;;;;5070939;28;20032;-71
2023/05/07 01:53:09;;;;;;;17.02;8.63;;;16.00;99.90;;;;;;5072422;28;20028;-72
2023/05/07 01:55:36;;;;;;;46.77;28.57;;;15.90;99.90;;;;;;5072732;28;20021;-72
2023/05/07 01:58:03;;;;;;;20.55;13.48;;;15.90;99.90;;;;;;5070964;28;20024;-73
2023/05/07 02:00:29;;;;;;;23.20;16.23;;;15.90;99.90;;;;;;5072281;28;20063;-73
2023/05/07 02:02:56;;;;;;;14.27;9.57;;;15.90;99.90;;;;;;5072376;28;20189;-71
2023/05/07 02:05:23;;;;;;;9.25;6.20;;;15.90;99.90;;;;;;5072134;28;20024;-71
2023/05/07 02:07:49;;;;;;;9.30;5.80;;;16.00;99.90;;;;;;5072191;28;20468;-73
2023/05/07 02:10:15;;;;;;;17.63;9.30;;;16.00;99.90;;;;;;5072145;28;20413;-73
2023/05/07 02:12:42;;;;;;;15.27;8.53;;;15.90;99.90;;;;;;5072150;28;20342;-72
2023/05/07 02:15:09;;;;;;;15.65;6.97;;;15.80;99.90;;;;;;5072077;28;20038;-72
2023/05/07 02:17:37;;;;;;;7.55;4.80;;;15.80;99.90;;;;;;5072344;28;20024;-72
2023/05/07 02:20:03;;;;;;;10.25;5.00;;;15.80;99.90;;;;;;5070167;28;20127;-72
2023/05/07 02:22:30;;;;;;;8.07;4.70;;;15.70;99.90;;;;;;5071944;28;20145;-72
2023/05/07 02:24:56;;;;;;;7.97;4.22;;;15.80;99.90;;;;;;5072250;28;20506;-73
2023/05/07 02:27:22;;;;;;;10.23;5.00;;;15.90;99.90;;;;;;5071991;28;20029;-71
2023/05/07 02:29:48;;;;;;;9.17;4.67;;;15.90;99.90;;;;;;5071574;28;20024;-73
2023/05/07 02:32:14;;;;;;;6.67;4.23;;;15.90;99.90;;;;;;5070620;28;20077;-72
2023/05/07 02:34:40;;;;;;;7.40;4.13;;;15.90;99.90;;;;;;5072074;28;20267;-71
2023/05/07 02:37:06;;;;;;;5.93;3.80;;;16.00;99.90;;;;;;5071767;28;20052;-71
2023/05/07 02:39:32;;;;;;;5.68;3.58;;;16.00;99.90;;;;;;5071320;28;20025;-71
2023/05/07 02:41:58;;;;;;;6.17;4.03;;;16.00;99.90;;;;;;5071606;28;20059;-72
2023/05/07 02:44:25;;;;;;;5.50;3.60;;;16.10;99.90;;;;;;5071627;28;20266;-72
2023/05/07 02:46:51;;;;;;;6.35;3.90;;;16.10;99.90;;;;;;5071553;28;20035;-71
2023/05/07 02:49:17;;;;;;;7.50;4.10;;;16.10;99.90;;;;;;5071736;28;20021;-71
2023/05/07 02:51:43;;;;;;;5.57;3.63;;;16.10;99.90;;;;;;5069689;28;20149;-71
2023/05/07 02:54:09;;;;;;;5.67;3.80;;;16.20;99.90;;;;;;5071331;28;20730;-71
2023/05/07 02:56:35;;;;;;;6.43;4.20;;;16.20;99.90;;;;;;5071294;28;20381;-72
2023/05/07 02:59:01;;;;;;;7.50;4.20;;;16.30;99.90;;;;;;5069637;28;20267;-71
2023/05/07 03:01:27;;;;;;;10.00;3.87;;;16.30;99.90;;;;;;5071124;28;20044;-72
2023/05/07 03:03:54;;;;;;;6.13;4.23;;;16.20;99.90;;;;;;5071061;28;20285;-72
2023/05/07 03:06:20;;;;;;;4.78;3.60;;;16.20;99.90;;;;;;5071257;28;20109;-72
2023/05/07 03:08:46;;;;;;;6.23;4.00;;;16.20;99.90;;;;;;5070993;28;20016;-71
2023/05/07 03:11:12;;;;;;;7.22;3.60;;;16.30;99.90;;;;;;5069424;28;20334;-72
2023/05/07 03:13:38;;;;;;;5.97;3.90;;;16.40;99.90;;;;;;5071209;28;20084;-71
2023/05/07 03:16:05;;;;;;;6.77;3.90;;;16.40;99.90;;;;;;5069360;28;20154;-71
2023/05/07 03:18:31;;;;;;;7.13;4.15;;;16.50;99.90;;;;;;5070805;28;20119;-72
2023/05/07 03:20:57;;;;;;;7.27;4.33;;;16.40;99.90;;;;;;5071110;28;20074;-71
2023/05/07 03:23:23;;;;;;;5.85;3.75;;;16.50;99.90;;;;;;5070527;28;20445;-72
2023/05/07 03:25:49;;;;;;;6.73;4.00;;;16.50;99.90;;;;;;5069256;28;20428;-72
2023/05/07 03:28:16;;;;;;;6.83;4.50;;;16.50;99.90;;;;;;5070679;28;20464;-72
2023/05/07 03:30:42;;;;;;;6.38;3.92;;;16.50;99.90;;;;;;5070385;28;20294;-70
2023/05/07 03:33:08;;;;;;;6.93;3.83;;;16.50;99.90;;;;;;5069034;28;20422;-72
2023/05/07 03:35:34;;;;;;;8.47;4.00;;;16.50;99.90;;;;;;5070436;28;20446;-71
2023/05/07 03:38:00;;;;;;;5.93;3.47;;;16.50;99.90;;;;;;5070208;28;20185;-71
2023/05/07 03:40:27;;;;;;;8.30;3.70;;;16.50;99.90;;;;;;5069995;28;20386;-71
2023/05/07 03:42:53;;;;;;;9.05;3.70;;;16.50;99.90;;;;;;5069915;28;20422;-71
2023/05/07 03:45:19;;;;;;;5.30;3.70;;;16.60;99.90;;;;;;5068902;28;20028;-71
2023/05/07 03:47:45;;;;;;;7.82;3.75;;;16.60;99.90;;;;;;5070291;28;20021;-72
2023/05/07 03:50:11;;;;;;;7.03;3.20;;;16.60;99.90;;;;;;5070268;28;20131;-71
2023/05/07 03:52:37;;;;;;;9.07;3.75;;;16.60;99.90;;;;;;5070268;28;20034;-71
2023/05/07 03:55:04;;;;;;;8.27;4.10;;;16.70;99.90;;;;;;5070464;28;20076;-70
2023/05/07 03:57:30;;;;;;;5.57;3.30;;;16.70;99.90;;;;;;5070279;28;20032;-70
2023/05/07 03:59:56;;;;;;;5.95;3.35;;;16.80;99.90;;;;;;5075049;28;20488;-72
2023/05/07 04:02:22;;;;;;;6.30;3.60;;;16.80;99.90;;;;;;5079991;28;20036;-70
2023/05/07 04:04:49;;;;;;;12.35;3.92;;;16.80;99.90;;;;;;5088885;28;20122;-72
2023/05/07 04:07:17;;;;;;;6.57;3.80;;;16.70;99.90;;;;;;5080046;28;20025;-69
2023/05/07 04:09:51;;;;;;;7.50;3.47;;;16.60;99.90;;;;;;5060272;28;20035;-70
2023/05/07 04:12:17;;;;;;;10.60;3.85;;;16.60;99.90;;;;;;5060987;28;20111;-72
2023/05/07 04:14:43;;;;;;;4.47;3.42;;;16.60;99.90;;;;;;5066206;28;20480;-71
2023/05/07 04:17:10;;;;;;;5.17;3.60;;;16.60;99.90;;;;;;5071438;28;20033;-70
2023/05/07 04:19:36;;;;;;;7.97;3.78;;;16.70;99.90;;;;;;5073012;28;20369;-69
2023/05/07 04:22:04;;;;;;;5.78;3.85;;;16.70;99.90;;;;;;5071683;28;20091;-69
2023/05/07 04:24:33;;;;;;;7.05;3.55;;;16.70;99.90;;;;;;5062456;28;20391;-72
2023/05/07 04:26:59;;;;;;;8.40;4.13;;;16.80;99.90;;;;;;5059229;28;20550;-71
2023/05/07 04:29:25;;;;;;;7.00;4.53;;;16.90;99.90;;;;;;5057956;28;20048;-72
2023/05/07 04:31:56;;;;;;;6.57;3.65;;;16.90;99.90;;;;;;5067610;28;20039;-69
2023/05/07 04:34:22;;;;;;;7.80;3.85;;;17.00;99.90;;;;;;5092440;28;20422;-71
2023/05/07 04:36:48;;;;;;;7.07;4.00;;;17.00;99.90;;;;;;5066130;28;20143;-71
2023/05/07 04:39:14;;;;;;;8.00;4.37;;;17.00;99.90;;;;;;5069509;28;20029;-71
2023/05/07 04:41:40;;;;;;;6.88;4.28;;;17.00;99.90;;;;;;5069039;28;20342;-72
2023/05/07 04:44:09;;;;;;;6.73;3.87;;;17.20;99.90;;;;;;5063717;28;20840;-70
2023/05/07 04:46:35;;;;;;;8.27;4.53;;;17.20;99.90;;;;;;5058385;28;20036;-69
2023/05/07 04:49:03;;;;;;;9.55;4.10;;;17.20;99.90;;;;;;5060810;28;20055;-70
2023/05/07 04:51:29;;;;;;;5.90;3.42;;;17.30;99.90;;;;;;5061091;28;20024;-73
2023/05/07 04:53:55;;;;;;;8.77;3.90;;;17.40;99.90;;;;;;5072108;28;20112;-73
2023/05/07 04:56:21;;;;;;;7.10;3.90;;;17.40;99.90;;;;;;5073626;28;20274;-74
2023/05/07 04:58:47;;;;;;;4.90;3.70;;;17.50;99.90;;;;;;5066502;28;20319;-70
2023/05/07 05:01:13;;;;;;;5.10;3.58;;;17.60;99.90;;;;;;5073476;28;20322;-74
2023/05/07 05:03:39;;;;;;;6.53;3.90;;;17.70;99.90;;;;;;5073463;28;20381;-72
2023/05/07 05:06:05;;;;;;;9.68;4.05;;;17.80;99.90;;;;;;5073534;28;20029;-72
2023/05/07 05:08:31;;;;;;;6.25;3.53;;;17.70;99.90;;;;;;5073174;28;20064;-72
2023/05/07 05:10:58;;;;;;;5.65;3.58;;;18.00;99.90;;;;;;5073488;28;20468;-72
2023/05/07 05:13:24;;;;;;;7.15;3.70;;;18.10;99.90;;;;;;5073542;28;20134;-72
2023/05/07 05:15:50;;;;;;;6.60;3.08;;;18.50;99.90;;;;;;5073481;28;20119;-72
2023/05/07 05:18:16;;;;;;;8.90;3.53;;;19.10;99.90;;;;;;5071370;28;20383;-72
2023/05/07 05:20:42;;;;;;;6.47;3.70;;;19.70;99.90;;;;;;5071521;28;20044;-73
2023/05/07 05:23:08;;;;;;;5.18;3.17;;;20.20;99.90;;;;;;5073131;28;20047;-72
2023/05/07 05:25:34;;;;;;;6.90;3.10;;;21.00;99.90;;;;;;5071840;28;20028;-70
2023/05/07 05:28:01;;;;;;;7.97;3.35;;;22.20;99.90;;;;;;5073003;28;20025;-74
2023/05/07 05:30:27;;;;;;;23.75;4.15;;;23.30;99.90;;;;;;5073027;28;20067;-72
2023/05/07 05:32:53;;;;;;;11.35;3.10;;;25.20;99.90;;;;;;5073090;28;20017;-73
2023/05/07 05:35:19;;;;;;;6.03;3.20;;;26.50;99.90;;;;;;5072864;28;20029;-71
2023/05/07 05:37:45;;;;;;;6.68;3.75;;;26.60;99.90;;;;;;5072755;28;20081;-72
2023/05/07 05:40:11;;;;;;;7.57;3.55;;;26.80;99.90;;;;;;5072937;28;20238;-75
2023/05/07 05:42:37;;;;;;;6.97;3.70;;;27.20;99.90;;;;;;5071424;28;20350;-73
2023/05/07 05:45:04;;;;;;;9.25;3.80;;;27.00;99.90;;;;;;5072582;28;20047;-73
2023/05/07 05:47:30;;;;;;;8.10;4.13;;;27.00;99.90;;;;;;5072972;28;20077;-73
2023/05/07 05:49:56;;;;;;;9.30;3.75;;;28.40;99.90;;;;;;5072715;28;20040;-72
2023/05/07 05:52:23;;;;;;;6.55;3.88;;;28.80;99.90;;;;;;5071065;28;20026;-72
2023/05/07 05:54:50;;;;;;;8.95;4.20;;;28.10;99.90;;;;;;5072261;28;20083;-73
2023/05/07 05:57:16;;;;;;;6.15;3.78;;;28.00;99.90;;;;;;5071954;28;20025;-74
2023/05/07 05:59:42;;;;;;;;;;;28.50;99.90;;;;;;5071902;28;20025;-73
2023/05/07 06:02:08;;;;;;;7.97;3.50;;;29.50;99.90;;;;;;5071831;28;19909;-74
2023/05/07 06:04:34;;;;;;;;;;;30.60;99.90;;;;;;5069688;28;20029;-72
2023/05/07 06:07:00;;;;;;;8.07;3.15;;;30.10;99.90;;;;;;5071776;28;20313;-72
2023/05/07 06:09:26;;;;;;;7.85;3.25;;;30.10;99.90;;;;;;5071342;28;20042;-74
2023/05/07 06:11:53;;;;;;;6.55;3.35;;;30.20;99.80;;;;;;5071705;28;20422;-74
2023/05/07 06:14:19;;;;;;;6.82;3.78;;;29.80;99.90;;;;;;5072125;28;20025;-72
2023/05/07 06:16:50;;;;;;;;;;;30.00;99.90;;;;;;5072945;28;20052;-71
2023/05/07 06:19:17;;;;;;;6.47;3.80;;;29.60;99.90;;;;;;5077802;28;19916;-72
2023/05/07 06:21:45;;;;;;;6.07;3.10;;;29.50;99.90;;;;;;5086618;28;20060;-69
2023/05/07 06:24:11;;;;;;;5.13;3.13;;;29.70;99.90;;;;;;5092892;28;20337;-73
2023/05/07 06:26:37;;;;;;;;;;;30.20;99.90;;;;;;5092932;28;20020;-72
2023/05/07 06:29:03;;;;;;;9.25;3.35;;;30.70;99.90;;;;;;5092946;28;19911;-72
2023/05/07 06:31:31;;;;;;;6.32;2.90;;;30.40;99.90;;;;;;5092491;28;20100;-71
2023/05/07 06:33:58;;;;;;;5.72;2.90;;;31.60;99.20;;;;;;5092653;28;20020;-72
2023/05/07 06:36:24;;;;;;;6.90;3.35;;;31.50;98.80;;;;;;5092564;28;20024;-72
2023/05/07 06:38:50;;;;;;;;;;;31.10;99.30;;;;;;5092589;28;20095;-73
2023/05/07 06:41:16;;;;;;;6.78;3.10;;;30.70;99.60;;;;;;5092319;28;20065;-73
2023/05/07 06:43:42;;;;;;;16.42;3.72;;;31.10;99.60;;;;;;5092517;28;20036;-73
2023/05/07 06:46:08;;;;;;;;;;;31.00;99.90;;;;;;5092536;28;20049;-72
2023/05/07 06:48:34;;;;;;;6.32;3.33;;;31.60;99.90;;;;;;5092113;28;19987;-74
2023/05/07 06:51:00;;;;;;;4.10;2.53;;;32.30;99.50;;;;;;5075845;28;20107;-73
2023/05/07 06:53:28;;;;;;;7.40;2.80;;;32.30;98.60;;;;;;5071758;28;20032;-73
2023/05/07 06:55:54;;;;;;;4.45;2.42;;;32.30;99.10;;;;;;5072308;28;20016;-74
2023/05/07 06:58:20;;;;;;;6.43;2.70;;;32.20;99.40;;;;;;5071583;28;20039;-73
2023/05/07 07:00:46;;;;;;;3.97;2.47;;;32.30;99.20;;;;;;5072070;28;20108;-73
2023/05/07 07:03:12;;;;;;;5.15;2.83;;;32.50;99.00;;;;;;5072239;28;20329;-73
2023/05/07 07:05:40;;;;;;;5.97;2.78;;;31.90;99.30;;;;;;5071850;28;20107;-74
2023/05/07 07:08:06;;;;;;;6.38;2.50;;;32.00;99.80;;;;;;5071356;28;20040;-72
2023/05/07 07:10:32;;;;;;;5.43;2.17;;;32.00;99.50;;;;;;5071845;28;20029;-70
2023/05/07 07:12:58;;;;;;;3.30;2.30;;;32.00;98.50;;;;;;5071520;28;20104;-72
2023/05/07 07:15:31;;;;;;;6.82;2.40;;;32.00;98.20;;;;;;5071442;28;20056;-75
2023/05/07 07:17:57;;;;;;;3.97;2.08;;;31.50;98.30;;;;;;5071669;28;20417;-75
2023/05/07 07:20:23;;;;;;;;;;;30.30;98.30;;;;;;5071520;28;20063;-75
2023/05/07 07:22:49;;;;;;;5.18;2.80;;;29.70;99.70;;;;;;5071576;28;19905;-76
2023/05/07 07:25:15;;;;;;;9.50;2.60;;;29.10;98.90;;;;;;5071086;28;20100;-76
2023/05/07 07:27:41;;;;;;;4.70;2.70;;;27.70;99.90;;;;;;5071626;28;20032;-78
2023/05/07 07:30:08;;;;;;;8.85;3.08;;;28.00;99.90;;;;;;5062218;28;20027;-77
2023/05/07 07:32:35;;;;;;;4.68;2.75;;;28.30;99.90;;;;;;5056731;28;20025;-74
2023/05/07 07:35:01;;;;;;;4.88;3.00;;;27.10;99.90;;;;;;5056038;28;20033;-74
2023/05/07 07:37:27;;;;;;;4.80;2.83;;;26.30;99.90;;;;;;5061690;28;20028;-77
2023/05/07 07:39:53;;;;;;;5.75;3.33;;;26.50;99.90;;;;;;5071126;28;20075;-79
2023/05/07 07:42:19;;;;;;;3.90;2.97;;;26.40;99.90;;;;;;5070929;28;20170;-78
2023/05/07 07:44:46;;;;;;;4.72;3.33;;;26.40;99.90;;;;;;5071052;28;20067;-78
2023/05/07 07:47:12;;;;;;;13.25;3.80;;;25.90;99.90;;;;;;5070898;28;20107;-76
2023/05/07 07:49:38;;;;;;;5.97;3.50;;;25.10;99.90;;;;;;5070861;28;20020;-75
2023/05/07 07:52:04;;;;;;;11.70;3.10;;;24.70;99.90;;;;;;5070721;28;20039;-77
2023/05/07 07:54:31;;;;;;;4.85;3.20;;;24.90;99.90;;;;;;5070555;28;20039;-77
2023/05/07 07:56:57;;;;;;;;;;;24.60;99.90;;;;;;5070074;28;20040;-76
2023/05/07 07:59:23;;;;;;;6.43;3.40;;;24.90;99.90;;;;;;5070672;28;20003;-74
2023/05/07 08:01:50;;;;;;;5.45;3.30;;;24.30;99.90;;;;;;5070633;28;20040;-75
2023/05/07 08:04:16;;;;;;;6.55;3.40;;;24.10;99.90;;;;;;5070418;28;20040;-76
2023/05/07 08:06:42;;;;;;;6.28;3.80;;;24.40;99.90;;;;;;5070366;28;20115;-74
2023/05/07 08:09:08;;;;;;;6.05;4.28;;;22.90;99.90;;;;;;5070113;28;20330;-75
2023/05/07 08:11:34;;;;;;;5.38;4.07;;;22.00;99.90;;;;;;5070274;28;20435;-74
2023/05/07 08:14:00;;;;;;;7.20;3.80;;;21.80;99.90;;;;;;5070584;28;20024;-74
2023/05/07 08:16:28;;;;;;;10.00;4.45;;;21.90;99.90;;;;;;5070351;28;20025;-75
2023/05/07 08:18:54;;;;;;;5.75;4.60;;;22.20;99.90;;;;;;5070688;28;20036;-72
2023/05/07 08:21:20;;;;;;;7.38;4.88;;;22.20;99.90;;;;;;5070981;28;20115;-75
2023/05/07 08:23:46;;;;;;;6.22;4.80;;;22.60;99.90;;;;;;5070681;28;20052;-75
2023/05/07 08:26:12;;;;;;;8.88;4.53;;;22.60;99.90;;;;;;5069400;28;20097;-75
2023/05/07 08:28:39;;;;;;;5.38;3.53;;;22.10;99.90;;;;;;5070626;28;20016;-75
2023/05/07 08:31:05;;;;;;;6.93;4.00;;;22.30;99.90;;;;;;5070947;28;20024;-74
2023/05/07 08:33:32;;;;;;;6.57;4.22;;;22.50;99.90;;;;;;5071172;28;20048;-75
2023/05/07 08:35:58;;;;;;;6.75;4.03;;;22.80;99.90;;;;;;5070630;28;20461;-75
2023/05/07 08:38:24;;;;;;;6.10;4.70;;;23.20;99.90;;;;;;5070652;28;20027;-75
2023/05/07 08:40:50;;;;;;;6.72;4.10;;;23.20;99.90;;;;;;5071159;28;20097;-75
2023/05/07 08:43:18;;;;;;;15.05;4.40;;;23.40;99.90;;;;;;5070971;28;20107;-73
2023/05/07 08:45:45;;;;;;;6.57;3.70;;;24.30;99.90;;;;;;5070879;28;20059;-71
2023/05/07 08:48:17;;;;;;;6.80;3.10;;;24.60;99.90;;;;;;5069071;28;20028;-77
2023/05/07 08:50:43;;;;;;;4.07;3.08;;;25.00;99.90;;;;;;5102331;28;20067;-75
2023/05/07 08:53:09;;;;;;;6.22;3.13;;;24.00;99.90;;;;;;5102284;28;20112;-76
2023/05/07 08:55:45;;;;;;;5.07;2.60;;;24.40;99.90;;;;;;5068870;28;20120;-76
2023/05/07 08:58:12;;;;;;;13.90;3.90;;;24.90;99.90;;;;;;5070412;28;20025;-75
2023/05/07 09:00:40;;;;;;;5.40;2.50;;;25.10;99.90;;;;;;5070207;28;20029;-74
2023/05/07 09:03:06;;;;;;;3.72;2.10;;;25.80;99.90;;;;;;5070402;28;20135;-72
2023/05/07 09:05:32;;;;;;;5.15;2.13;;;25.70;99.90;;;;;;5070824;28;20028;-74
2023/05/07 09:08:06;;;;;;;4.22;1.90;;;25.40;99.90;;;;;;5070279;28;20039;-73
2023/05/07 09:10:35;;;;;;;4.15;2.10;;;25.50;99.90;;;;;;5070188;28;20063;-71
2023/05/07 09:13:03;;;;;;;4.50;1.90;;;25.70;99.90;;;;;;5069596;28;20020;-73
2023/05/07 09:15:30;;;;;;;4.72;1.70;;;26.20;99.90;;;;;;5069287;28;20052;-71
2023/05/07 09:18:03;;;;;;;3.47;1.70;;;25.70;99.90;;;;;;5068154;28;20479;-72
2023/05/07 09:20:31;;;;;;;5.40;1.70;;;26.10;99.90;;;;;;5069519;28;20036;-72
2023/05/07 09:22:57;;;;;;;9.15;1.67;;;26.00;99.90;;;;;;5102235;28;20060;-73
2023/05/07 09:25:31;;;;;;;6.20;1.80;;;26.10;99.90;;;;;;5069553;28;20112;-74
2023/05/07 09:27:57;;;;;;;4.47;1.65;;;26.40;99.90;;;;;;5069976;28;20110;-72
2023/05/07 09:30:30;;;;;;;3.60;1.40;;;25.80;99.90;;;;;;5073845;28;20420;-72
2023/05/07 09:32:59;;;;;;;3.58;1.40;;;25.80;99.90;;;;;;5088486;28;20028;-73
2023/05/07 09:35:27;;;;;;;2.83;1.23;;;25.90;99.90;;;;;;5071630;28;20021;-72
2023/05/07 09:37:57;;;;;;;7.35;1.50;;;26.00;99.90;;;;;;5070120;28;20453;-72
2023/05/07 09:40:29;;;;;;;2.22;1.17;;;25.70;99.80;;;;;;5083386;28;20032;-74
2023/05/07 09:42:55;;;;;;;3.45;1.50;;;25.50;99.90;;;;;;5083388;28;20524;-72
2023/05/07 09:45:24;;;;;;;;;;;25.40;99.90;;;;;;5106412;28;20025;-73
2023/05/07 09:47:55;;;;;;;5.70;1.50;;;25.70;99.90;;;;;;5073697;28;20009;-74
2023/05/07 09:50:27;;;;;;;2.70;1.48;;;25.60;99.90;;;;;;5081916;28;20032;-73
2023/05/07 09:52:55;;;;;;;3.22;1.38;;;25.50;99.90;;;;;;5073413;28;20348;-72
2023/05/07 09:55:22;;;;;;;4.70;1.50;;;25.50;99.90;;;;;;5071441;28;20419;-74
2023/05/07 09:57:52;;;;;;;6.88;1.20;;;25.50;99.90;;;;;;5078687;28;20061;-73
2023/05/07 10:00:21;;;;;;;8.18;1.60;;;25.60;99.70;;;;;;5087476;28;20472;-73
2023/05/07 10:02:51;;;;;;;7.18;1.63;;;25.30;99.70;;;;;;5073350;28;20021;-72
2023/05/07 10:05:18;;;;;;;7.80;1.30;;;24.80;99.80;;;;;;5073548;28;20471;-72
2023/05/07 10:07:44;;;;;;;2.40;1.20;;;24.60;99.90;;;;;;5105870;28;20031;-72
2023/05/07 10:10:11;;;;;;;5.10;1.50;;;24.70;99.80;;;;;;5073061;28;20024;-71
2023/05/07 10:12:38;;;;;;;7.78;1.50;;;25.00;99.90;;;;;;5083318;28;20024;-72
2023/05/07 10:15:10;;;;;;;3.35;1.33;;;25.00;99.60;;;;;;5073196;28;20032;-70
2023/05/07 10:17:39;;;;;;;8.50;1.85;;;25.00;99.90;;;;;;5072872;28;20020;-72
2023/05/07 10:20:09;;;;;;;4.93;1.77;;;25.10;99.90;;;;;;5062873;28;20493;-71
2023/05/07 10:22:42;;;;;;;4.78;1.48;;;25.10;99.40;;;;;;5053024;28;20412;-74
2023/05/07 10:25:21;;;;;;;10.85;2.10;;;25.00;99.90;;;;;;5052928;28;20032;-72
2023/05/07 10:27:50;;;;;;;3.67;1.50;;;25.00;99.90;;;;;;5053200;28;20025;-73
2023/05/07 10:30:40;;;;;;;3.25;1.42;;;25.10;99.90;;;;;;5053270;28;20426;-73
2023/05/07 10:33:10;;;;;;;3.70;1.42;;;25.10;99.90;;;;;;5053315;28;20020;-73
2023/05/07 10:35:42;;;;;;;10.23;1.90;;;25.10;99.40;;;;;;5052802;28;20159;-72
2023/05/07 10:38:09;;;;;;;4.15;1.60;;;24.90;99.90;;;;;;5052793;28;20056;-70
2023/05/07 10:40:36;;;;;;;5.80;1.88;;;24.90;99.90;;;;;;5052816;28;20033;-71
2023/05/07 10:43:06;;;;;;;6.93;2.22;;;24.70;99.90;;;;;;5051085;28;20507;-72
2023/05/07 10:45:32;;;;;;;4.50;1.90;;;24.70;99.90;;;;;;5052617;28;20112;-71
2023/05/07 10:48:16;;;;;;;4.38;1.80;;;24.90;99.90;;;;;;5052717;28;20440;-72
2023/05/07 10:50:43;;;;;;;4.63;1.63;;;25.10;99.50;;;;;;5065658;28;20047;-72
2023/05/07 10:53:19;;;;;;;3.10;1.45;;;25.40;99.40;;;;;;5072661;28;20044;-71
2023/05/07 10:55:51;;;;;;;2.60;1.37;;;25.40;99.90;;;;;;5072810;28;20461;-72
2023/05/07 10:58:31;;;;;;;2.70;1.38;;;25.70;99.90;;;;;;5072682;28;20097;-71
2023/05/07 11:01:03;;;;;;;3.20;1.60;;;25.50;99.90;;;;;;5072191;28;20468;-72
2023/05/07 11:03:30;;;;;;;3.63;1.52;;;25.00;99.90;;;;;;5071703;28;20079;-72
2023/05/07 11:06:12;;;;;;;;;;;25.60;99.90;;;;;;5071914;28;20024;-71
2023/05/07 11:08:53;;;;;;;4.05;1.60;;;25.70;99.90;;;;;;5071146;28;19905;-71
2023/05/07 11:11:22;;;;;;;3.42;1.70;;;25.60;99.90;;;;;;5069596;28;20036;-70
2023/05/07 11:13:50;;;;;;;5.60;1.85;;;25.50;99.90;;;;;;5071508;28;20066;-72
2023/05/07 11:16:22;;;;;;;6.47;1.38;;;25.20;99.10;;;;;;5071132;28;20104;-71
2023/05/07 11:18:55;;;;;;;8.05;1.50;;;24.80;97.40;;;;;;5071284;28;20044;-70
2023/05/07 11:21:41;;;;;;;5.75;1.60;;;24.10;99.20;;;;;;5071408;28;20461;-72
2023/05/07 11:24:07;;;;;;;;;;;24.40;99.60;;;;;;5071725;28;20034;-72
2023/05/07 11:26:45;;;;;;;2.53;1.27;;;24.10;98.70;;;;;;5071156;28;19908;-71
2023/05/07 11:29:19;;;;;;;3.80;1.60;;;24.10;98.20;;;;;;5071161;28;20052;-72
2023/05/07 11:31:53;;;;;;;3.75;1.60;;;24.60;99.10;;;;;;5071269;28;20538;-72
2023/05/07 11:34:26;;;;;;;2.20;1.30;;;24.80;98.00;;;;;;5071309;28;20156;-71
2023/05/07 11:36:53;;;;;;;4.22;1.65;;;25.10;97.90;;;;;;5071305;28;20056;-72
2023/05/07 11:39:25;;;;;;;3.40;1.60;;;25.20;98.30;;;;;;5071039;28;20119;-72
2023/05/07 11:41:51;;;;;;;3.88;2.05;;;25.60;97.50;;;;;;5071028;28;20039;-72
2023/05/07 11:44:17;;;;;;;3.45;1.60;;;25.70;97.00;;;;;;5071619;28;20036;-74
2023/05/07 11:46:45;;;;;;;4.15;1.48;;;25.60;96.50;;;;;;5071618;28;20084;-72
2023/05/07 11:49:11;;;;;;;5.50;3.53;;;25.60;95.30;;;;;;5071443;28;20092;-72
2023/05/07 11:51:37;;;;;;;3.30;1.70;;;25.00;95.10;;;;;;5071052;28;20032;-73
2023/05/07 11:54:08;;;;;;;2.83;1.23;;;24.90;95.20;;;;;;5069827;28;20028;-73
2023/05/07 11:56:38;;;;;;;2.92;1.23;;;25.10;94.50;;;;;;5071454;28;20094;-72
2023/05/07 11:59:05;;;;;;;3.97;1.13;;;25.10;94.00;;;;;;5070897;28;20028;-73
2023/05/07 12:01:31;;;;;;;3.15;1.10;;;24.80;94.20;;;;;;5057093;28;20163;-72
2023/05/07 12:03:57;;;;;;;2.30;1.10;;;25.10;94.40;;;;;;5050562;28;20029;-71
2023/05/07 12:06:23;;;;;;;4.43;1.40;;;25.30;93.40;;;;;;5051951;28;20028;-72
2023/05/07 12:08:49;;;;;;;2.22;1.00;;;25.50;93.40;;;;;;5071013;28;20029;-73
2023/05/07 12:11:22;;;;;;;3.17;1.23;;;25.50;94.10;;;;;;5070714;28;20082;-73
2023/05/07 12:13:48;;;;;;;4.68;1.25;;;25.80;94.30;;;;;;5070943;28;20052;-70
2023/05/07 12:16:14;;;;;;;4.07;1.27;;;26.10;93.80;;;;;;5071085;28;20054;-74
2023/05/07 12:18:41;;;;;;;3.67;1.13;;;25.90;93.50;;;;;;5070454;28;20053;-71
2023/05/07 12:21:09;;;;;;;5.82;1.10;;;25.90;93.40;;;;;;5070317;28;20053;-74
2023/05/07 12:23:37;;;;;;;3.47;1.20;;;25.90;93.30;;;;;;5070539;28;20105;-73
2023/05/07 12:26:03;;;;;;;2.20;0.98;;;26.10;93.30;;;;;;5069897;28;20028;-72
2023/05/07 12:28:30;;;;;;;1.77;1.00;;;25.90;93.00;;;;;;5070010;28;20062;-73
2023/05/07 12:30:57;;;;;;;4.85;0.90;;;25.40;91.10;;;;;;5070010;28;20074;-73
2023/05/07 12:33:28;;;;;;;2.90;0.90;;;24.60;90.80;;;;;;5069935;28;20108;-72
2023/05/07 12:35:56;;;;;;;2.55;1.00;;;24.30;91.40;;;;;;5069916;28;20028;-73
2023/05/07 12:38:23;;;;;;;2.03;1.10;;;24.30;92.00;;;;;;5069749;28;20116;-73
2023/05/07 12:40:53;;;;;;;1.90;0.80;;;24.80;92.70;;;;;;5070258;28;20132;-73
2023/05/07 12:43:25;;;;;;;3.17;1.08;;;24.80;91.90;;;;;;5070127;28;20021;-73
2023/05/07 12:45:56;;;;;;;13.65;1.20;;;24.50;91.90;;;;;;5070848;28;20024;-73
2023/05/07 12:48:23;;;;;;;1.77;0.90;;;24.40;91.60;;;;;;5070162;28;20020;-73